sensor_id;sensor_type;location;lat;lon;timestamp;P1;durP1;ratioP1;P2;durP2;ratioP2
27505;SDS011;14939;43.596;1.320;2023-03-01T00:01:29;31.70;;;18.85;;
27505;SDS011;14939;43.596;1.320;2023-03-01T00:03:56;38.55;;;22.27;;
27505;SDS011;14939;43.596;1.320;2023-03-01T00:06:23;52.45;;;32.95;;
27505;SDS011;14939;43.596;1.320;2023-03-01T00:08:49;86.00;;;58.28;;
27505;SDS011;14939;43.596;1.320;2023-03-01T00:11:20;68.53;;;44.97;;
27505;SDS011;14939;43.596;1.320;2023-03-01T00:13:49;51.25;;;30.77;;
27505;SDS011;14939;43.596;1.320;2023-03-01T00:16:22;48.55;;;32.00;;
27505;SDS011;14939;43.596;1.320;2023-03-01T00:18:53;42.95;;;29.25;;
27505;SDS011;14939;43.596;1.320;2023-03-01T00:21:20;48.50;;;33.88;;
27505;SDS011;14939;43.596;1.320;2023-03-01T00:23:47;49.75;;;38.58;;
27505;SDS011;14939;43.596;1.320;2023-03-01T00:26:14;67.90;;;48.15;;
27505;SDS011;14939;43.596;1.320;2023-03-01T00:28:41;51.03;;;37.10;;
27505;SDS011;14939;43.596;1.320;2023-03-01T00:31:11;39.13;;;30.45;;
27505;SDS011;14939;43.596;1.320;2023-03-01T00:33:39;31.33;;;22.17;;
27505;SDS011;14939;43.596;1.320;2023-03-01T00:36:05;48.17;;;36.40;;
27505;SDS011;14939;43.596;1.320;2023-03-01T00:38:35;25.17;;;15.93;;
27505;SDS011;14939;43.596;1.320;2023-03-01T00:41:06;23.08;;;14.15;;
27505;SDS011;14939;43.596;1.320;2023-03-01T00:43:33;21.98;;;13.32;;
27505;SDS011;14939;43.596;1.320;2023-03-01T00:46:05;24.35;;;14.05;;
27505;SDS011;14939;43.596;1.320;2023-03-01T00:48:33;23.45;;;13.68;;
27505;SDS011;14939;43.596;1.320;2023-03-01T00:51:08;21.83;;;13.95;;
27505;SDS011;14939;43.596;1.320;2023-03-01T00:53:36;21.98;;;14.63;;
27505;SDS011;14939;43.596;1.320;2023-03-01T00:56:03;24.23;;;15.02;;
27505;SDS011;14939;43.596;1.320;2023-03-01T00:58:29;22.33;;;15.45;;
27505;SDS011;14939;43.596;1.320;2023-03-01T01:00:55;21.85;;;15.30;;
27505;SDS011;14939;43.596;1.320;2023-03-01T01:03:21;28.83;;;19.02;;
27505;SDS011;14939;43.596;1.320;2023-03-01T01:05:49;27.88;;;19.70;;
27505;SDS011;14939;43.596;1.320;2023-03-01T01:08:19;30.70;;;20.73;;
27505;SDS011;14939;43.596;1.320;2023-03-01T01:10:46;29.92;;;19.20;;
27505;SDS011;14939;43.596;1.320;2023-03-01T01:13:12;30.10;;;20.48;;
27505;SDS011;14939;43.596;1.320;2023-03-01T01:15:38;36.15;;;28.13;;
27505;SDS011;14939;43.596;1.320;2023-03-01T01:18:04;31.98;;;23.92;;
27505;SDS011;14939;43.596;1.320;2023-03-01T01:20:30;33.65;;;22.35;;
27505;SDS011;14939;43.596;1.320;2023-03-01T01:22:56;24.98;;;16.30;;
27505;SDS011;14939;43.596;1.320;2023-03-01T01:25:22;29.15;;;19.13;;
27505;SDS011;14939;43.596;1.320;2023-03-01T01:27:50;24.73;;;16.40;;
27505;SDS011;14939;43.596;1.320;2023-03-01T01:30:16;26.58;;;15.52;;
27505;SDS011;14939;43.596;1.320;2023-03-01T01:32:42;23.20;;;14.50;;
27505;SDS011;14939;43.596;1.320;2023-03-01T01:35:08;22.17;;;14.35;;
27505;SDS011;14939;43.596;1.320;2023-03-01T01:37:33;22.60;;;14.52;;
27505;SDS011;14939;43.596;1.320;2023-03-01T01:39:59;25.42;;;15.10;;
27505;SDS011;14939;43.596;1.320;2023-03-01T01:42:28;25.30;;;14.23;;
27505;SDS011;14939;43.596;1.320;2023-03-01T01:47:51;25.38;;;15.38;;
27505;SDS011;14939;43.596;1.320;2023-03-01T01:50:19;26.15;;;16.02;;
27505;SDS011;14939;43.596;1.320;2023-03-01T01:52:44;24.33;;;15.85;;
27505;SDS011;14939;43.596;1.320;2023-03-01T01:55:14;24.75;;;15.30;;
27505;SDS011;14939;43.596;1.320;2023-03-01T01:57:47;29.33;;;15.75;;
27505;SDS011;14939;43.596;1.320;2023-03-01T02:00:26;28.92;;;17.58;;
27505;SDS011;14939;43.596;1.320;2023-03-01T02:03:12;26.63;;;16.65;;
27505;SDS011;14939;43.596;1.320;2023-03-01T02:05:53;26.15;;;17.13;;
27505;SDS011;14939;43.596;1.320;2023-03-01T02:08:38;28.30;;;16.40;;
27505;SDS011;14939;43.596;1.320;2023-03-01T02:11:25;27.30;;;16.40;;
27505;SDS011;14939;43.596;1.320;2023-03-01T02:13:54;24.27;;;15.30;;
27505;SDS011;14939;43.596;1.320;2023-03-01T02:16:20;25.65;;;15.73;;
27505;SDS011;14939;43.596;1.320;2023-03-01T02:18:46;25.52;;;15.32;;
27505;SDS011;14939;43.596;1.320;2023-03-01T02:26:53;26.27;;;15.15;;
27505;SDS011;14939;43.596;1.320;2023-03-01T02:29:23;27.80;;;15.82;;
27505;SDS011;14939;43.596;1.320;2023-03-01T02:31:50;24.73;;;15.55;;
27505;SDS011;14939;43.596;1.320;2023-03-01T02:34:21;26.70;;;16.65;;
27505;SDS011;14939;43.596;1.320;2023-03-01T02:37:12;25.70;;;16.13;;
27505;SDS011;14939;43.596;1.320;2023-03-01T02:39:40;25.77;;;15.45;;
27505;SDS011;14939;43.596;1.320;2023-03-01T02:42:11;27.13;;;16.25;;
27505;SDS011;14939;43.596;1.320;2023-03-01T02:44:40;28.60;;;15.75;;
27505;SDS011;14939;43.596;1.320;2023-03-01T02:47:06;27.23;;;16.23;;
27505;SDS011;14939;43.596;1.320;2023-03-01T02:49:32;25.98;;;16.70;;
27505;SDS011;14939;43.596;1.320;2023-03-01T02:57:33;24.25;;;15.38;;
27505;SDS011;14939;43.596;1.320;2023-03-01T03:00:08;25.80;;;16.02;;
27505;SDS011;14939;43.596;1.320;2023-03-01T03:02:43;23.80;;;15.10;;
27505;SDS011;14939;43.596;1.320;2023-03-01T03:05:15;26.90;;;16.35;;
27505;SDS011;14939;43.596;1.320;2023-03-01T03:07:43;26.15;;;15.73;;
27505;SDS011;14939;43.596;1.320;2023-03-01T03:10:32;29.27;;;15.85;;
27505;SDS011;14939;43.596;1.320;2023-03-01T03:13:02;27.08;;;16.13;;
27505;SDS011;14939;43.596;1.320;2023-03-01T03:15:30;23.17;;;14.68;;
27505;SDS011;14939;43.596;1.320;2023-03-01T03:17:57;25.45;;;15.30;;
27505;SDS011;14939;43.596;1.320;2023-03-01T03:20:24;25.65;;;15.38;;
27505;SDS011;14939;43.596;1.320;2023-03-01T03:22:52;24.95;;;14.68;;
27505;SDS011;14939;43.596;1.320;2023-03-01T03:25:19;23.38;;;14.45;;
27505;SDS011;14939;43.596;1.320;2023-03-01T03:27:46;25.70;;;15.43;;
27505;SDS011;14939;43.596;1.320;2023-03-01T03:30:15;22.50;;;15.00;;
27505;SDS011;14939;43.596;1.320;2023-03-01T03:32:43;22.65;;;14.85;;
27505;SDS011;14939;43.596;1.320;2023-03-01T03:35:17;24.00;;;14.98;;
27505;SDS011;14939;43.596;1.320;2023-03-01T03:37:44;21.90;;;14.55;;
27505;SDS011;14939;43.596;1.320;2023-03-01T03:40:35;26.45;;;15.68;;
27505;SDS011;14939;43.596;1.320;2023-03-01T03:43:03;24.08;;;15.05;;
27505;SDS011;14939;43.596;1.320;2023-03-01T03:45:30;21.05;;;14.60;;
27505;SDS011;14939;43.596;1.320;2023-03-01T03:47:58;25.60;;;14.88;;
27505;SDS011;14939;43.596;1.320;2023-03-01T03:50:25;25.23;;;14.95;;
27505;SDS011;14939;43.596;1.320;2023-03-01T03:52:51;23.17;;;14.85;;
27505;SDS011;14939;43.596;1.320;2023-03-01T03:55:17;24.38;;;15.10;;
27505;SDS011;14939;43.596;1.320;2023-03-01T03:57:45;21.58;;;14.20;;
27505;SDS011;14939;43.596;1.320;2023-03-01T04:00:17;24.27;;;14.68;;
27505;SDS011;14939;43.596;1.320;2023-03-01T04:02:45;24.40;;;14.60;;
27505;SDS011;14939;43.596;1.320;2023-03-01T04:05:12;25.88;;;15.57;;
27505;SDS011;14939;43.596;1.320;2023-03-01T04:07:40;24.75;;;15.32;;
27505;SDS011;14939;43.596;1.320;2023-03-01T04:10:08;23.42;;;15.57;;
27505;SDS011;14939;43.596;1.320;2023-03-01T04:12:36;27.35;;;15.88;;
27505;SDS011;14939;43.596;1.320;2023-03-01T04:15:06;24.10;;;15.93;;
27505;SDS011;14939;43.596;1.320;2023-03-01T04:17:47;25.35;;;15.90;;
27505;SDS011;14939;43.596;1.320;2023-03-01T04:20:15;24.42;;;15.82;;
27505;SDS011;14939;43.596;1.320;2023-03-01T04:22:43;26.00;;;15.20;;
27505;SDS011;14939;43.596;1.320;2023-03-01T04:25:12;25.02;;;15.63;;
27505;SDS011;14939;43.596;1.320;2023-03-01T04:27:39;23.40;;;15.23;;
27505;SDS011;14939;43.596;1.320;2023-03-01T04:30:06;28.17;;;15.20;;
27505;SDS011;14939;43.596;1.320;2023-03-01T04:32:32;23.58;;;15.00;;
27505;SDS011;14939;43.596;1.320;2023-03-01T04:34:58;27.95;;;15.80;;
27505;SDS011;14939;43.596;1.320;2023-03-01T04:37:24;23.05;;;15.55;;
27505;SDS011;14939;43.596;1.320;2023-03-01T04:39:50;26.95;;;16.15;;
27505;SDS011;14939;43.596;1.320;2023-03-01T04:42:16;26.73;;;16.67;;
27505;SDS011;14939;43.596;1.320;2023-03-01T04:44:43;29.15;;;17.17;;
27505;SDS011;14939;43.596;1.320;2023-03-01T04:47:09;25.08;;;15.95;;
27505;SDS011;14939;43.596;1.320;2023-03-01T04:49:34;26.67;;;16.35;;
27505;SDS011;14939;43.596;1.320;2023-03-01T04:52:00;24.13;;;15.70;;
27505;SDS011;14939;43.596;1.320;2023-03-01T04:54:32;26.70;;;16.33;;
27505;SDS011;14939;43.596;1.320;2023-03-01T04:56:59;27.67;;;16.40;;
27505;SDS011;14939;43.596;1.320;2023-03-01T04:59:25;26.67;;;16.60;;
27505;SDS011;14939;43.596;1.320;2023-03-01T05:01:52;28.50;;;17.90;;
27505;SDS011;14939;43.596;1.320;2023-03-01T05:04:22;32.58;;;18.60;;
27505;SDS011;14939;43.596;1.320;2023-03-01T05:06:49;33.38;;;19.80;;
27505;SDS011;14939;43.596;1.320;2023-03-01T05:09:15;37.67;;;20.45;;
27505;SDS011;14939;43.596;1.320;2023-03-01T05:11:41;32.30;;;17.92;;
27505;SDS011;14939;43.596;1.320;2023-03-01T05:14:07;27.45;;;17.65;;
27505;SDS011;14939;43.596;1.320;2023-03-01T05:16:35;30.45;;;17.42;;
27505;SDS011;14939;43.596;1.320;2023-03-01T05:19:02;30.65;;;17.45;;
27505;SDS011;14939;43.596;1.320;2023-03-01T05:21:36;30.95;;;18.10;;
27505;SDS011;14939;43.596;1.320;2023-03-01T05:24:23;29.50;;;17.83;;
27505;SDS011;14939;43.596;1.320;2023-03-01T05:26:49;29.10;;;17.38;;
27505;SDS011;14939;43.596;1.320;2023-03-01T05:29:17;29.13;;;17.30;;
27505;SDS011;14939;43.596;1.320;2023-03-01T05:31:53;28.63;;;18.27;;
27505;SDS011;14939;43.596;1.320;2023-03-01T05:34:27;32.20;;;19.20;;
27505;SDS011;14939;43.596;1.320;2023-03-01T05:37:00;33.10;;;18.95;;
27505;SDS011;14939;43.596;1.320;2023-03-01T05:39:27;32.13;;;19.73;;
27505;SDS011;14939;43.596;1.320;2023-03-01T05:41:55;33.47;;;20.17;;
27505;SDS011;14939;43.596;1.320;2023-03-01T05:44:22;33.97;;;20.42;;
27505;SDS011;14939;43.596;1.320;2023-03-01T05:46:48;36.88;;;20.05;;
27505;SDS011;14939;43.596;1.320;2023-03-01T05:49:14;32.67;;;19.88;;
27505;SDS011;14939;43.596;1.320;2023-03-01T05:51:41;34.25;;;20.33;;
27505;SDS011;14939;43.596;1.320;2023-03-01T05:54:08;38.30;;;20.45;;
27505;SDS011;14939;43.596;1.320;2023-03-01T05:56:35;45.60;;;24.08;;
27505;SDS011;14939;43.596;1.320;2023-03-01T05:59:02;40.22;;;22.02;;
27505;SDS011;14939;43.596;1.320;2023-03-01T06:01:30;39.05;;;21.90;;
27505;SDS011;14939;43.596;1.320;2023-03-01T06:03:56;37.22;;;21.42;;
27505;SDS011;14939;43.596;1.320;2023-03-01T06:06:22;52.08;;;25.92;;
27505;SDS011;14939;43.596;1.320;2023-03-01T06:08:49;56.40;;;27.83;;
27505;SDS011;14939;43.596;1.320;2023-03-01T06:11:14;42.17;;;23.17;;
27505;SDS011;14939;43.596;1.320;2023-03-01T06:13:41;45.13;;;23.75;;
27505;SDS011;14939;43.596;1.320;2023-03-01T06:16:07;43.67;;;23.60;;
27505;SDS011;14939;43.596;1.320;2023-03-01T06:18:33;40.40;;;21.98;;
27505;SDS011;14939;43.596;1.320;2023-03-01T06:20:59;43.50;;;22.60;;
27505;SDS011;14939;43.596;1.320;2023-03-01T06:23:25;41.47;;;22.42;;
27505;SDS011;14939;43.596;1.320;2023-03-01T06:25:51;38.20;;;22.30;;
27505;SDS011;14939;43.596;1.320;2023-03-01T06:28:17;39.42;;;22.15;;
27505;SDS011;14939;43.596;1.320;2023-03-01T06:30:43;41.40;;;21.38;;
27505;SDS011;14939;43.596;1.320;2023-03-01T06:33:09;40.88;;;22.27;;
27505;SDS011;14939;43.596;1.320;2023-03-01T06:35:34;40.67;;;24.58;;
27505;SDS011;14939;43.596;1.320;2023-03-01T06:38:00;40.83;;;22.73;;
27505;SDS011;14939;43.596;1.320;2023-03-01T06:40:27;39.58;;;21.92;;
27505;SDS011;14939;43.596;1.320;2023-03-01T06:42:54;41.67;;;24.05;;
27505;SDS011;14939;43.596;1.320;2023-03-01T06:45:20;40.58;;;23.17;;
27505;SDS011;14939;43.596;1.320;2023-03-01T06:47:46;45.47;;;23.75;;
27505;SDS011;14939;43.596;1.320;2023-03-01T06:50:13;39.25;;;22.42;;
27505;SDS011;14939;43.596;1.320;2023-03-01T06:52:39;39.70;;;22.00;;
27505;SDS011;14939;43.596;1.320;2023-03-01T06:55:05;47.78;;;26.38;;
27505;SDS011;14939;43.596;1.320;2023-03-01T06:57:31;65.82;;;33.75;;
27505;SDS011;14939;43.596;1.320;2023-03-01T06:59:57;55.78;;;28.13;;
27505;SDS011;14939;43.596;1.320;2023-03-01T07:02:23;54.22;;;27.35;;
27505;SDS011;14939;43.596;1.320;2023-03-01T07:04:50;50.90;;;25.85;;
27505;SDS011;14939;43.596;1.320;2023-03-01T07:07:16;61.28;;;28.98;;
27505;SDS011;14939;43.596;1.320;2023-03-01T07:09:43;70.72;;;32.25;;
27505;SDS011;14939;43.596;1.320;2023-03-01T07:12:13;44.45;;;24.80;;
27505;SDS011;14939;43.596;1.320;2023-03-01T07:14:39;52.45;;;27.02;;
27505;SDS011;14939;43.596;1.320;2023-03-01T07:17:04;49.03;;;26.23;;
27505;SDS011;14939;43.596;1.320;2023-03-01T07:19:30;47.80;;;24.58;;
27505;SDS011;14939;43.596;1.320;2023-03-01T07:21:56;47.08;;;24.40;;
27505;SDS011;14939;43.596;1.320;2023-03-01T07:24:22;44.38;;;23.60;;
27505;SDS011;14939;43.596;1.320;2023-03-01T07:26:48;42.45;;;22.73;;
27505;SDS011;14939;43.596;1.320;2023-03-01T07:29:15;44.67;;;23.80;;
27505;SDS011;14939;43.596;1.320;2023-03-01T07:31:41;40.67;;;23.05;;
27505;SDS011;14939;43.596;1.320;2023-03-01T07:34:06;40.38;;;24.10;;
27505;SDS011;14939;43.596;1.320;2023-03-01T07:36:32;45.22;;;24.23;;
27505;SDS011;14939;43.596;1.320;2023-03-01T07:38:58;55.53;;;24.40;;
27505;SDS011;14939;43.596;1.320;2023-03-01T07:41:24;59.92;;;26.42;;
27505;SDS011;14939;43.596;1.320;2023-03-01T07:43:50;44.45;;;24.45;;
27505;SDS011;14939;43.596;1.320;2023-03-01T07:46:15;46.05;;;26.00;;
27505;SDS011;14939;43.596;1.320;2023-03-01T07:48:42;48.78;;;25.83;;
27505;SDS011;14939;43.596;1.320;2023-03-01T07:51:09;47.08;;;26.67;;
27505;SDS011;14939;43.596;1.320;2023-03-01T07:53:35;51.47;;;26.42;;
27505;SDS011;14939;43.596;1.320;2023-03-01T07:56:05;46.30;;;25.63;;
27505;SDS011;14939;43.596;1.320;2023-03-01T07:58:31;44.35;;;25.02;;
27505;SDS011;14939;43.596;1.320;2023-03-01T08:01:04;46.75;;;25.15;;
27505;SDS011;14939;43.596;1.320;2023-03-01T08:03:30;40.78;;;23.98;;
27505;SDS011;14939;43.596;1.320;2023-03-01T08:05:58;41.15;;;23.58;;
27505;SDS011;14939;43.596;1.320;2023-03-01T08:08:25;38.80;;;23.83;;
27505;SDS011;14939;43.596;1.320;2023-03-01T08:10:52;40.42;;;23.77;;
27505;SDS011;14939;43.596;1.320;2023-03-01T08:13:20;41.85;;;24.63;;
27505;SDS011;14939;43.596;1.320;2023-03-01T08:15:50;39.53;;;24.35;;
27505;SDS011;14939;43.596;1.320;2023-03-01T08:18:16;45.60;;;24.35;;
27505;SDS011;14939;43.596;1.320;2023-03-01T08:20:43;45.38;;;24.20;;
27505;SDS011;14939;43.596;1.320;2023-03-01T08:23:09;45.35;;;23.77;;
27505;SDS011;14939;43.596;1.320;2023-03-01T08:25:35;39.28;;;24.73;;
27505;SDS011;14939;43.596;1.320;2023-03-01T08:28:00;40.42;;;23.30;;
27505;SDS011;14939;43.596;1.320;2023-03-01T08:30:26;36.58;;;22.77;;
27505;SDS011;14939;43.596;1.320;2023-03-01T08:32:52;38.60;;;22.27;;
27505;SDS011;14939;43.596;1.320;2023-03-01T08:35:18;39.38;;;22.67;;
27505;SDS011;14939;43.596;1.320;2023-03-01T08:37:45;36.78;;;22.98;;
27505;SDS011;14939;43.596;1.320;2023-03-01T08:40:11;34.88;;;22.30;;
27505;SDS011;14939;43.596;1.320;2023-03-01T08:42:38;35.47;;;23.00;;
27505;SDS011;14939;43.596;1.320;2023-03-01T08:47:36;36.75;;;21.85;;
27505;SDS011;14939;43.596;1.320;2023-03-01T08:50:03;36.30;;;21.55;;
27505;SDS011;14939;43.596;1.320;2023-03-01T08:52:29;33.38;;;20.60;;
27505;SDS011;14939;43.596;1.320;2023-03-01T08:54:55;48.10;;;20.75;;
27505;SDS011;14939;43.596;1.320;2023-03-01T08:57:21;35.22;;;20.85;;
27505;SDS011;14939;43.596;1.320;2023-03-01T08:59:47;33.55;;;21.17;;
27505;SDS011;14939;43.596;1.320;2023-03-01T09:02:16;32.28;;;20.67;;
27505;SDS011;14939;43.596;1.320;2023-03-01T09:04:43;34.08;;;20.85;;
27505;SDS011;14939;43.596;1.320;2023-03-01T09:07:09;33.92;;;20.25;;
27505;SDS011;14939;43.596;1.320;2023-03-01T09:09:35;31.25;;;20.70;;
27505;SDS011;14939;43.596;1.320;2023-03-01T09:12:02;20.13;;;13.88;;
27505;SDS011;14939;43.596;1.320;2023-03-01T09:14:28;30.65;;;18.27;;
27505;SDS011;14939;43.596;1.320;2023-03-01T09:16:54;25.75;;;16.05;;
27505;SDS011;14939;43.596;1.320;2023-03-01T09:19:20;28.60;;;17.27;;
27505;SDS011;14939;43.596;1.320;2023-03-01T09:21:45;19.33;;;14.20;;
27505;SDS011;14939;43.596;1.320;2023-03-01T09:24:17;15.68;;;11.52;;
27505;SDS011;14939;43.596;1.320;2023-03-01T09:26:45;15.77;;;11.10;;
27505;SDS011;14939;43.596;1.320;2023-03-01T09:29:11;14.10;;;10.30;;
27505;SDS011;14939;43.596;1.320;2023-03-01T09:31:37;12.93;;;10.10;;
27505;SDS011;14939;43.596;1.320;2023-03-01T09:34:03;13.07;;;9.77;;
27505;SDS011;14939;43.596;1.320;2023-03-01T09:36:29;12.45;;;9.73;;
27505;SDS011;14939;43.596;1.320;2023-03-01T09:38:55;12.60;;;9.10;;
27505;SDS011;14939;43.596;1.320;2023-03-01T09:44:05;12.82;;;9.43;;
27505;SDS011;14939;43.596;1.320;2023-03-01T09:46:44;12.52;;;9.45;;
27505;SDS011;14939;43.596;1.320;2023-03-01T09:49:15;12.52;;;9.45;;
27505;SDS011;14939;43.596;1.320;2023-03-01T09:54:30;11.05;;;8.07;;
27505;SDS011;14939;43.596;1.320;2023-03-01T09:56:59;12.90;;;8.77;;
27505;SDS011;14939;43.596;1.320;2023-03-01T09:59:49;12.30;;;8.80;;
27505;SDS011;14939;43.596;1.320;2023-03-01T10:02:32;14.60;;;9.07;;
27505;SDS011;14939;43.596;1.320;2023-03-01T10:05:27;12.52;;;8.43;;
27505;SDS011;14939;43.596;1.320;2023-03-01T10:10:43;14.52;;;9.57;;
27505;SDS011;14939;43.596;1.320;2023-03-01T10:13:24;12.23;;;10.02;;
27505;SDS011;14939;43.596;1.320;2023-03-01T10:15:58;12.18;;;9.13;;
27505;SDS011;14939;43.596;1.320;2023-03-01T10:18:29;12.05;;;8.73;;
27505;SDS011;14939;43.596;1.320;2023-03-01T10:23:25;14.30;;;9.25;;
27505;SDS011;14939;43.596;1.320;2023-03-01T10:31:25;12.50;;;9.55;;
27505;SDS011;14939;43.596;1.320;2023-03-01T10:34:02;12.20;;;8.80;;
27505;SDS011;14939;43.596;1.320;2023-03-01T10:36:33;11.48;;;8.95;;
27505;SDS011;14939;43.596;1.320;2023-03-01T10:38:59;13.10;;;9.38;;
27505;SDS011;14939;43.596;1.320;2023-03-01T10:41:37;11.38;;;8.77;;
27505;SDS011;14939;43.596;1.320;2023-03-01T10:47:01;7.70;;;6.45;;
27505;SDS011;14939;43.596;1.320;2023-03-01T10:49:27;13.25;;;8.77;;
27505;SDS011;14939;43.596;1.320;2023-03-01T10:51:53;13.50;;;9.13;;
27505;SDS011;14939;43.596;1.320;2023-03-01T10:54:25;13.40;;;9.02;;
27505;SDS011;14939;43.596;1.320;2023-03-01T10:57:03;12.30;;;9.50;;
27505;SDS011;14939;43.596;1.320;2023-03-01T10:59:31;13.60;;;9.90;;
27505;SDS011;14939;43.596;1.320;2023-03-01T11:10:25;13.32;;;9.63;;
27505;SDS011;14939;43.596;1.320;2023-03-01T11:12:52;12.57;;;8.88;;
27505;SDS011;14939;43.596;1.320;2023-03-01T11:15:28;10.10;;;8.27;;
27505;SDS011;14939;43.596;1.320;2023-03-01T11:17:54;12.57;;;8.55;;
27505;SDS011;14939;43.596;1.320;2023-03-01T11:20:32;11.68;;;8.73;;
27505;SDS011;14939;43.596;1.320;2023-03-01T11:23:10;11.30;;;8.95;;
27505;SDS011;14939;43.596;1.320;2023-03-01T11:25:42;13.45;;;9.25;;
27505;SDS011;14939;43.596;1.320;2023-03-01T11:28:14;12.30;;;8.98;;
27505;SDS011;14939;43.596;1.320;2023-03-01T11:33:38;10.90;;;9.13;;
27505;SDS011;14939;43.596;1.320;2023-03-01T11:36:32;11.95;;;8.90;;
27505;SDS011;14939;43.596;1.320;2023-03-01T11:39:12;12.25;;;9.23;;
27505;SDS011;14939;43.596;1.320;2023-03-01T11:41:52;12.30;;;9.50;;
27505;SDS011;14939;43.596;1.320;2023-03-01T11:44:30;12.70;;;9.02;;
27505;SDS011;14939;43.596;1.320;2023-03-01T11:47:13;12.18;;;8.90;;
27505;SDS011;14939;43.596;1.320;2023-03-01T11:50:04;13.80;;;9.18;;
27505;SDS011;14939;43.596;1.320;2023-03-01T12:01:27;13.75;;;9.40;;
27505;SDS011;14939;43.596;1.320;2023-03-01T12:07:04;12.10;;;9.55;;
27505;SDS011;14939;43.596;1.320;2023-03-01T12:12:24;12.02;;;9.52;;
27505;SDS011;14939;43.596;1.320;2023-03-01T12:15:29;10.88;;;8.98;;
27505;SDS011;14939;43.596;1.320;2023-03-01T12:20:56;11.15;;;9.13;;
27505;SDS011;14939;43.596;1.320;2023-03-01T12:26:36;10.90;;;8.90;;
27505;SDS011;14939;43.596;1.320;2023-03-01T12:42:48;11.80;;;9.68;;
27505;SDS011;14939;43.596;1.320;2023-03-01T12:48:24;12.40;;;9.48;;
27505;SDS011;14939;43.596;1.320;2023-03-01T12:51:07;12.10;;;9.13;;
27505;SDS011;14939;43.596;1.320;2023-03-01T12:53:41;11.02;;;9.15;;
27505;SDS011;14939;43.596;1.320;2023-03-01T12:56:22;12.55;;;9.43;;
27505;SDS011;14939;43.596;1.320;2023-03-01T13:02:07;12.70;;;9.15;;
27505;SDS011;14939;43.596;1.320;2023-03-01T13:04:52;11.60;;;8.25;;
27505;SDS011;14939;43.596;1.320;2023-03-01T13:07:28;13.38;;;9.05;;
27505;SDS011;14939;43.596;1.320;2023-03-01T13:20:16;11.88;;;8.93;;
27505;SDS011;14939;43.596;1.320;2023-03-01T13:22:45;13.40;;;8.45;;
27505;SDS011;14939;43.596;1.320;2023-03-01T13:25:16;12.45;;;9.10;;
27505;SDS011;14939;43.596;1.320;2023-03-01T13:27:45;9.70;;;7.78;;
27505;SDS011;14939;43.596;1.320;2023-03-01T13:33:22;11.07;;;8.25;;
27505;SDS011;14939;43.596;1.320;2023-03-01T13:35:50;10.65;;;8.70;;
27505;SDS011;14939;43.596;1.320;2023-03-01T13:49:26;13.90;;;9.60;;
27505;SDS011;14939;43.596;1.320;2023-03-01T13:51:56;11.05;;;8.73;;
27505;SDS011;14939;43.596;1.320;2023-03-01T13:54:31;10.98;;;8.68;;
27505;SDS011;14939;43.596;1.320;2023-03-01T13:56:58;10.70;;;8.88;;
27505;SDS011;14939;43.596;1.320;2023-03-01T13:59:25;11.57;;;8.65;;
27505;SDS011;14939;43.596;1.320;2023-03-01T14:01:56;11.95;;;8.93;;
27505;SDS011;14939;43.596;1.320;2023-03-01T14:04:28;14.80;;;10.43;;
27505;SDS011;14939;43.596;1.320;2023-03-01T14:07:18;10.57;;;8.95;;
27505;SDS011;14939;43.596;1.320;2023-03-01T14:09:51;11.27;;;9.30;;
27505;SDS011;14939;43.596;1.320;2023-03-01T14:20:00;12.05;;;9.15;;
27505;SDS011;14939;43.596;1.320;2023-03-01T14:22:34;12.18;;;8.55;;
27505;SDS011;14939;43.596;1.320;2023-03-01T14:25:02;10.80;;;8.32;;
27505;SDS011;14939;43.596;1.320;2023-03-01T14:27:43;11.93;;;9.00;;
27505;SDS011;14939;43.596;1.320;2023-03-01T14:30:15;10.15;;;8.48;;
27505;SDS011;14939;43.596;1.320;2023-03-01T14:35:59;10.27;;;8.70;;
27505;SDS011;14939;43.596;1.320;2023-03-01T14:41:14;10.95;;;8.65;;
27505;SDS011;14939;43.596;1.320;2023-03-01T14:43:46;12.02;;;8.73;;
27505;SDS011;14939;43.596;1.320;2023-03-01T14:46:26;10.20;;;8.10;;
27505;SDS011;14939;43.596;1.320;2023-03-01T14:49:00;11.60;;;8.85;;
27505;SDS011;14939;43.596;1.320;2023-03-01T14:51:39;12.00;;;8.95;;
27505;SDS011;14939;43.596;1.320;2023-03-01T14:57:20;10.55;;;8.23;;
27505;SDS011;14939;43.596;1.320;2023-03-01T14:59:48;11.90;;;8.60;;
27505;SDS011;14939;43.596;1.320;2023-03-01T15:02:18;11.50;;;9.45;;
27505;SDS011;14939;43.596;1.320;2023-03-01T15:04:48;10.40;;;8.43;;
27505;SDS011;14939;43.596;1.320;2023-03-01T15:07:16;11.10;;;8.77;;
27505;SDS011;14939;43.596;1.320;2023-03-01T15:09:42;13.75;;;9.70;;
27505;SDS011;14939;43.596;1.320;2023-03-01T15:17:58;11.43;;;8.57;;
27505;SDS011;14939;43.596;1.320;2023-03-01T15:20:27;11.33;;;8.63;;
27505;SDS011;14939;43.596;1.320;2023-03-01T15:22:55;14.70;;;10.10;;
27505;SDS011;14939;43.596;1.320;2023-03-01T15:25:23;11.27;;;8.98;;
27505;SDS011;14939;43.596;1.320;2023-03-01T15:27:53;10.35;;;9.07;;
27505;SDS011;14939;43.596;1.320;2023-03-01T15:30:26;11.80;;;8.68;;
27505;SDS011;14939;43.596;1.320;2023-03-01T15:35:53;9.82;;;8.38;;
27505;SDS011;14939;43.596;1.320;2023-03-01T15:40:53;9.90;;;8.13;;
27505;SDS011;14939;43.596;1.320;2023-03-01T15:48:51;10.55;;;8.45;;
27505;SDS011;14939;43.596;1.320;2023-03-01T15:51:22;11.07;;;8.20;;
27505;SDS011;14939;43.596;1.320;2023-03-01T15:53:54;10.95;;;8.88;;
27505;SDS011;14939;43.596;1.320;2023-03-01T15:56:21;11.45;;;9.20;;
27505;SDS011;14939;43.596;1.320;2023-03-01T15:58:46;11.85;;;9.05;;
27505;SDS011;14939;43.596;1.320;2023-03-01T16:01:13;11.73;;;8.65;;
27505;SDS011;14939;43.596;1.320;2023-03-01T16:03:41;12.55;;;9.10;;
27505;SDS011;14939;43.596;1.320;2023-03-01T16:06:10;12.73;;;9.07;;
27505;SDS011;14939;43.596;1.320;2023-03-01T16:08:37;10.00;;;8.52;;
27505;SDS011;14939;43.596;1.320;2023-03-01T16:11:16;11.57;;;9.00;;
27505;SDS011;14939;43.596;1.320;2023-03-01T16:13:43;12.60;;;8.88;;
27505;SDS011;14939;43.596;1.320;2023-03-01T16:16:10;14.07;;;8.65;;
27505;SDS011;14939;43.596;1.320;2023-03-01T16:18:40;12.27;;;9.23;;
27505;SDS011;14939;43.596;1.320;2023-03-01T16:21:08;12.52;;;9.30;;
27505;SDS011;14939;43.596;1.320;2023-03-01T16:23:38;10.98;;;9.05;;
27505;SDS011;14939;43.596;1.320;2023-03-01T16:26:03;12.80;;;9.68;;
27505;SDS011;14939;43.596;1.320;2023-03-01T16:28:29;12.20;;;9.07;;
27505;SDS011;14939;43.596;1.320;2023-03-01T16:30:54;10.82;;;8.82;;
27505;SDS011;14939;43.596;1.320;2023-03-01T16:33:20;9.60;;;8.50;;
27505;SDS011;14939;43.596;1.320;2023-03-01T16:35:46;9.80;;;8.57;;
27505;SDS011;14939;43.596;1.320;2023-03-01T16:38:12;10.60;;;8.07;;
27505;SDS011;14939;43.596;1.320;2023-03-01T16:40:37;11.85;;;8.93;;
27505;SDS011;14939;43.596;1.320;2023-03-01T16:43:03;10.52;;;9.27;;
27505;SDS011;14939;43.596;1.320;2023-03-01T16:45:33;11.20;;;8.65;;
27505;SDS011;14939;43.596;1.320;2023-03-01T16:48:04;10.10;;;8.80;;
27505;SDS011;14939;43.596;1.320;2023-03-01T16:50:30;12.70;;;9.60;;
27505;SDS011;14939;43.596;1.320;2023-03-01T16:52:56;10.52;;;8.48;;
27505;SDS011;14939;43.596;1.320;2023-03-01T16:55:21;13.63;;;9.15;;
27505;SDS011;14939;43.596;1.320;2023-03-01T16:57:48;13.00;;;10.02;;
27505;SDS011;14939;43.596;1.320;2023-03-01T17:00:14;10.77;;;8.77;;
27505;SDS011;14939;43.596;1.320;2023-03-01T17:02:40;12.43;;;8.75;;
27505;SDS011;14939;43.596;1.320;2023-03-01T17:05:07;11.38;;;9.00;;